Time;durP1;ratioP1;P1;durP2;ratioP2;P2;SDS_P1;SDS_P2;PMS_P1;PMS_P2;Temp;Humidity;BMP_temperature;BMP_pressure;BME280_temperature;BME280_humidity;BME280_pressure;Samples;Min_cycle;Max_cycle;Signal;HPM_P1;HPM_P2
2023/03/02 00:01:44;;;;;;;52.83;25.30;;;;;;;1.01;100.00;92458.66;6214211;23;20013;-78
2023/03/02 00:04:49;;;;;;;55.50;25.45;;;;;;;1.02;100.00;92456.88;6213525;23;20030;-78
2023/03/02 00:07:19;;;;;;;51.75;24.67;;;;;;;1.02;100.00;92464.59;6189387;23;20059;-78
2023/03/02 00:09:45;;;;;;;55.42;25.95;;;;;;;1.00;100.00;92459.66;6188556;23;20008;-77
2023/03/02 00:12:12;;;;;;;61.42;26.83;;;;;;;0.98;100.00;92459.09;6188556;23;20005;-78
2023/03/02 00:14:37;;;;;;;55.25;25.38;;;;;;;0.95;100.00;92462.16;6163795;23;20016;-77
2023/03/02 00:17:04;;;;;;;57.60;26.30;;;;;;;0.97;100.00;92465.28;6187944;23;20023;-78
2023/03/02 00:19:29;;;;;;;59.75;26.23;;;;;;;0.96;100.00;92460.34;6188516;23;20016;-78
2023/03/02 00:21:55;;;;;;;58.05;26.55;;;;;;;0.93;100.00;92459.00;6188728;23;20075;-78
2023/03/02 00:24:21;;;;;;;59.13;25.83;;;;;;;0.95;100.00;92464.72;6189274;23;20083;-78
2023/03/02 00:26:46;;;;;;;56.50;25.92;;;;;;;0.96;100.00;92463.69;6188775;23;20013;-78
2023/03/02 00:29:12;;;;;;;54.30;24.92;;;;;;;0.97;100.00;92457.53;6215098;23;20155;-78
2023/03/02 00:31:38;;;;;;;64.70;27.05;;;;;;;0.94;100.00;92455.41;6163815;23;20084;-77
2023/03/02 00:34:03;;;;;;;56.97;25.90;;;;;;;0.99;100.00;92468.41;6164491;23;20001;-78
2023/03/02 00:36:29;;;;;;;53.85;26.02;;;;;;;0.99;100.00;92454.72;6215476;23;20087;-78
2023/03/02 00:38:56;;;;;;;56.88;26.23;;;;;;;0.98;100.00;92456.53;6189495;23;20024;-78
2023/03/02 00:41:22;;;;;;;54.88;24.67;;;;;;;1.01;100.00;92466.41;6164862;23;20504;-78
2023/03/02 00:43:48;;;;;;;55.58;25.80;;;;;;;0.99;100.00;92457.31;6214411;23;20043;-78
2023/03/02 00:46:17;;;;;;;52.55;25.50;;;;;;;0.99;100.00;92452.16;6189543;23;20439;-78
2023/03/02 00:48:43;;;;;;;52.47;25.35;;;;;;;0.99;100.00;92447.78;6189960;23;20089;-78
2023/03/02 00:51:09;;;;;;;54.17;25.15;;;;;;;1.01;100.00;92456.09;6215623;23;20037;-78
2023/03/02 00:53:36;;;;;;;53.65;25.40;;;;;;;1.00;100.00;92438.25;6215823;23;20063;-78
2023/03/02 00:56:02;;;;;;;52.92;25.58;;;;;;;1.04;100.00;92435.00;6189745;23;20021;-78
2023/03/02 00:58:30;;;;;;;52.53;25.20;;;;;;;1.06;100.00;92433.97;6188416;23;20081;-78
2023/03/02 01:00:58;;;;;;;54.20;24.58;;;;;;;1.03;100.00;92443.72;6215840;23;20000;-78
2023/03/02 01:03:25;;;;;;;56.22;26.30;;;;;;;1.04;100.00;92435.00;6189239;23;20017;-78
2023/03/02 01:05:54;;;;;;;57.60;25.38;;;;;;;1.13;100.00;92438.00;6164039;23;20479;-78
2023/03/02 01:08:21;;;;;;;58.50;26.20;;;;;;;1.09;100.00;92436.13;6166154;23;20445;-78
2023/03/02 01:10:46;;;;;;;54.78;26.15;;;;;;;1.06;100.00;92431.41;6189979;23;20211;-78
2023/03/02 01:13:12;;;;;;;54.40;25.63;;;;;;;1.07;100.00;92435.56;6166983;23;20023;-78
2023/03/02 01:15:38;;;;;;;53.08;26.98;;;;;;;1.04;100.00;92424.69;6166450;23;20015;-78
2023/03/02 01:18:03;;;;;;;50.75;25.23;;;;;;;1.07;100.00;92431.16;6166990;23;20397;-78
2023/03/02 01:20:29;;;;;;;55.38;27.30;;;;;;;1.08;100.00;92429.38;6217419;23;20083;-78
2023/03/02 01:22:55;;;;;;;55.55;25.77;;;;;;;1.10;100.00;92435.88;6192042;23;20387;-78
2023/03/02 01:25:20;;;;;;;57.42;26.42;;;;;;;1.08;100.00;92430.19;6167998;23;20020;-78
2023/03/02 01:27:46;;;;;;;52.50;25.42;;;;;;;1.09;100.00;92429.16;6141838;23;20039;-78
2023/03/02 01:30:12;;;;;;;54.72;26.08;;;;;;;1.07;100.00;92427.81;6191037;23;20348;-78
2023/03/02 01:32:38;;;;;;;49.95;21.58;;;;;;;1.27;100.00;92425.63;6191917;23;20008;-78
2023/03/02 01:35:05;;;;;;;59.40;25.50;;;;;;;1.30;100.00;92435.47;6167596;23;20017;-78
2023/03/02 01:37:30;;;;;;;54.95;25.20;;;;;;;1.19;100.00;92425.97;6218909;23;20034;-78
2023/03/02 01:39:56;;;;;;;57.47;24.13;;;;;;;1.15;100.00;92419.69;6192611;23;20041;-78
2023/03/02 01:42:22;;;;;;;54.83;25.48;;;;;;;1.15;100.00;92432.59;6191428;23;20021;-78
2023/03/02 01:44:56;;;;;;;57.40;26.88;;;;;;;1.12;100.00;92420.19;6191444;23;20009;-78
2023/03/02 01:47:24;;;;;;;54.72;25.98;;;;;;;1.13;100.00;92411.44;6215710;23;20016;-78
2023/03/02 01:50:12;;;;;;;49.95;24.38;;;;;;;1.11;100.00;92410.88;6191419;23;20371;-78
2023/03/02 01:52:39;;;;;;;65.57;26.02;;;;;;;1.12;100.00;92404.69;6173392;23;20016;-78
2023/03/02 01:55:11;;;;;;;56.00;26.05;;;;;;;1.09;100.00;92410.31;6216951;23;20008;-78
2023/03/02 01:57:42;;;;;;;59.53;26.13;;;;;;;1.06;100.00;92413.34;6217203;23;20092;-78
2023/03/02 02:00:13;;;;;;;57.22;26.55;;;;;;;1.07;100.00;92415.72;6216716;23;20460;-78
2023/03/02 02:02:40;;;;;;;63.80;27.23;;;;;;;1.06;100.00;92405.63;6217115;23;20019;-78
2023/03/02 02:05:14;;;;;;;60.25;27.02;;;;;;;1.07;100.00;92412.34;6217092;23;20028;-78
2023/03/02 02:07:40;;;;;;;60.63;25.45;;;;;;;1.07;100.00;92418.28;6192345;23;20036;-78
2023/03/02 02:10:07;;;;;;;56.65;25.67;;;;;;;1.08;100.00;92413.91;6189847;23;20476;-78
2023/03/02 02:12:33;;;;;;;60.85;26.88;;;;;;;1.06;100.00;92408.19;6191344;23;20024;-78
2023/03/02 02:15:00;;;;;;;52.10;25.50;;;;;;;1.09;100.00;92415.47;6217675;23;20056;-78
2023/03/02 02:17:27;;;;;;;50.28;24.08;;;;;;;1.17;100.00;92413.31;6216517;23;20357;-78
2023/03/02 02:20:19;;;;;;;58.53;26.40;;;;;;;1.24;100.00;92410.63;6216407;23;20015;-78
2023/03/02 02:23:03;;;;;;;53.03;25.83;;;;;;;1.20;100.00;92406.94;6216390;23;20032;-78
2023/03/02 02:25:51;;;;;;;56.70;26.10;;;;;;;1.17;100.00;92409.94;6215560;23;20016;-78
2023/03/02 02:28:29;;;;;;;54.53;24.98;;;;;;;1.12;100.00;92408.06;6216714;23;20091;-78
2023/03/02 02:31:04;;;;;;;58.17;26.95;;;;;;;1.16;100.00;92403.22;6216178;23;20013;-78
2023/03/02 02:33:31;;;;;;;55.15;25.52;;;;;;;1.12;100.00;92404.69;6215583;23;20433;-78
2023/03/02 02:36:03;;;;;;;61.00;25.40;;;;;;;1.09;100.00;92407.75;6190750;23;20348;-78
2023/03/02 02:38:30;;;;;;;56.20;25.48;;;;;;;1.06;100.00;92403.84;6215584;23;20009;-78
2023/03/02 02:41:00;;;;;;;57.45;25.65;;;;;;;1.06;100.00;92395.31;6215318;23;20011;-78
2023/03/02 02:43:31;;;;;;;52.10;25.65;;;;;;;1.04;100.00;92398.91;6216130;23;20047;-78
2023/03/02 02:45:59;;;;;;;60.30;26.45;;;;;;;1.01;100.00;92401.94;6215621;23;20015;-78
2023/03/02 02:48:29;;;;;;;66.32;26.13;;;;;;;1.03;100.00;92401.69;6217865;23;20008;-78
2023/03/02 02:51:01;;;;;;;56.25;26.30;;;;;;;1.02;100.00;92388.03;6216352;23;20369;-78
2023/03/02 02:54:07;;;;;;;63.15;26.55;;;;;;;1.04;100.00;92396.31;6216280;23;20019;-78
2023/03/02 02:56:37;;;;;;;54.30;24.48;;;;;;;1.03;100.00;92394.75;6215207;23;20394;-78
2023/03/02 02:59:12;;;;;;;57.70;25.50;;;;;;;1.02;100.00;92388.03;6215472;23;20019;-78
2023/03/02 03:01:38;;;;;;;53.10;26.27;;;;;;;1.03;100.00;92387.00;6215908;23;20063;-78
2023/03/02 03:04:05;;;;;;;51.05;23.92;;;;;;;1.27;100.00;92391.31;6190451;23;20355;-78
2023/03/02 03:06:37;;;;;;;55.10;24.88;;;;;;;1.22;100.00;92390.22;6215609;23;20444;-78
2023/03/02 03:09:05;;;;;;;56.47;24.58;;;;;;;1.18;100.00;92385.75;6215408;23;20012;-78
2023/03/02 03:11:40;;;;;;;52.92;23.90;;;;;;;1.11;100.00;92395.41;6215566;23;20107;-78
2023/03/02 03:14:07;;;;;;;50.15;24.58;;;;;;;1.10;100.00;92396.41;6191021;23;20016;-78
2023/03/02 03:16:34;;;;;;;61.08;26.15;;;;;;;1.02;100.00;92397.56;6215512;23;20027;-78
2023/03/02 03:19:06;;;;;;;58.72;27.10;;;;;;;0.94;100.00;92388.38;6191585;23;20063;-78
2023/03/02 03:21:32;;;;;;;;;;;;;;;0.94;100.00;92393.53;6219073;23;20016;-77
2023/03/02 03:23:58;;;;;;;53.15;25.17;;;;;;;0.92;100.00;92390.41;6236532;23;19982;-77
2023/03/02 03:26:24;;;;;;;56.10;25.42;;;;;;;0.93;100.00;92393.78;6184417;23;20036;-77
2023/03/02 03:28:50;;;;;;;56.95;25.02;;;;;;;0.90;100.00;92391.66;6230625;23;20012;-78
2023/03/02 03:31:15;;;;;;;50.80;23.95;;;;;;;0.92;100.00;92394.78;6188851;23;20456;-78
2023/03/02 03:33:42;;;;;;;54.28;25.80;;;;;;;0.93;100.00;92391.22;6189061;23;20046;-78
2023/03/02 03:36:08;;;;;;;55.60;25.80;;;;;;;0.88;100.00;92393.69;6213338;23;20433;-78
2023/03/02 03:38:34;;;;;;;66.40;26.83;;;;;;;0.88;100.00;92404.78;6188421;23;20349;-77
2023/03/02 03:41:00;;;;;;;57.33;27.67;;;;;;;0.85;100.00;92394.91;6212881;23;20016;-78
2023/03/02 03:43:26;;;;;;;58.92;26.88;;;;;;;0.84;100.00;92395.94;6189218;23;20408;-78
2023/03/02 03:45:53;;;;;;;58.00;24.20;;;;;;;0.85;100.00;92409.59;6213689;23;20015;-78
2023/03/02 03:48:19;;;;;;;67.80;26.15;;;;;;;0.85;100.00;92407.81;6213084;23;20044;-78
2023/03/02 03:50:46;;;;;;;57.58;26.77;;;;;;;0.82;100.00;92419.34;6213377;23;20009;-78
2023/03/02 03:53:12;;;;;;;63.35;26.15;;;;;;;0.81;100.00;92422.97;6189130;23;20028;-78
2023/03/02 03:55:38;;;;;;;52.17;25.27;;;;;;;0.81;100.00;92414.41;6212901;23;20397;-78
2023/03/02 03:58:04;;;;;;;56.88;27.02;;;;;;;0.79;100.00;92408.75;6213225;23;20076;-78
2023/03/02 04:00:29;;;;;;;58.17;26.73;;;;;;;0.83;100.00;92394.38;6214276;23;20087;-78
2023/03/02 04:03:02;;;;;;;59.78;26.10;;;;;;;0.84;100.00;92390.78;6215154;23;20023;-78
2023/03/02 04:05:29;;;;;;;60.45;27.05;;;;;;;0.83;100.00;92396.94;6214213;23;20478;-78
2023/03/02 04:07:55;;;;;;;59.60;25.48;;;;;;;0.79;100.00;92403.59;6214467;23;20032;-78
2023/03/02 04:10:21;;;;;;;58.28;26.13;;;;;;;0.81;100.00;92401.53;6188224;23;20337;-78
2023/03/02 04:12:49;;;;;;;58.75;25.85;;;;;;;0.78;100.00;92409.72;6189475;23;20021;-78
2023/03/02 04:15:16;;;;;;;59.13;26.02;;;;;;;0.75;100.00;92405.81;6214925;23;20016;-78
2023/03/02 04:17:43;;;;;;;62.15;28.27;;;;;;;0.83;100.00;92417.56;6189818;23;20031;-78
2023/03/02 04:20:15;;;;;;;59.25;25.35;;;;;;;0.85;100.00;92415.53;6214642;23;20004;-78
2023/03/02 04:22:44;;;;;;;55.35;27.35;;;;;;;0.75;100.00;92412.78;6216204;23;20392;-78
2023/03/02 04:25:11;;;;;;;57.83;27.42;;;;;;;0.68;100.00;92414.69;6215071;23;20095;-78
2023/03/02 04:27:37;;;;;;;62.95;27.17;;;;;;;0.61;100.00;92420.75;6215268;23;20012;-77
2023/03/02 04:30:04;;;;;;;58.35;27.02;;;;;;;0.57;100.00;92421.44;6189272;23;20471;-78
2023/03/02 04:32:30;;;;;;;56.05;25.75;;;;;;;0.55;100.00;92419.06;6164423;23;20376;-78
2023/03/02 04:34:55;;;;;;;60.45;26.13;;;;;;;0.55;100.00;92429.38;6215266;23;20123;-78
2023/03/02 04:37:22;;;;;;;62.13;27.45;;;;;;;0.54;100.00;92425.25;6215141;23;20028;-78
2023/03/02 04:39:50;;;;;;;62.78;27.55;;;;;;;0.57;100.00;92432.50;6188818;23;20004;-78
2023/03/02 04:42:19;;;;;;;62.15;26.55;;;;;;;0.56;100.00;92423.22;6216167;23;20019;-77
2023/03/02 04:44:45;;;;;;;54.15;24.77;;;;;;;0.55;100.00;92431.19;6217535;23;20023;-78
2023/03/02 04:47:11;;;;;;;58.40;26.25;;;;;;;0.55;100.00;92431.19;6214899;23;20091;-77
2023/03/02 04:49:36;;;;;;;60.05;26.75;;;;;;;0.58;100.00;92431.50;6218908;23;20000;-78
2023/03/02 04:52:02;;;;;;;61.72;27.35;;;;;;;0.56;100.00;92433.53;6235700;23;20023;-78
2023/03/02 04:54:28;;;;;;;64.10;27.92;;;;;;;0.56;100.00;92438.69;6235507;23;20398;-78
2023/03/02 04:56:54;;;;;;;58.38;27.98;;;;;;;0.56;100.00;92438.69;6227919;23;20024;-78
2023/03/02 04:59:26;;;;;;;58.13;27.38;;;;;;;0.59;100.00;92440.03;6188286;23;20012;-78
2023/03/02 05:01:56;;;;;;;62.45;28.02;;;;;;;0.60;100.00;92431.28;6187494;23;20058;-78
2023/03/02 05:04:22;;;;;;;60.88;26.88;;;;;;;0.62;100.00;92426.69;6187527;23;20080;-78
2023/03/02 05:06:47;;;;;;;63.15;27.17;;;;;;;0.61;100.00;92441.34;6188031;23;20452;-78
2023/03/02 05:09:13;;;;;;;59.30;25.85;;;;;;;0.59;100.00;92432.28;6214280;23;20047;-78
2023/03/02 05:11:39;;;;;;;60.63;26.95;;;;;;;0.60;100.00;92434.63;6214409;23;20017;-78
2023/03/02 05:14:07;;;;;;;58.08;26.17;;;;;;;0.60;100.00;92432.06;6189371;23;20008;-77
2023/03/02 05:16:35;;;;;;;56.75;26.48;;;;;;;0.60;100.00;92432.06;6189370;23;20100;-77
2023/03/02 05:19:02;;;;;;;57.95;26.35;;;;;;;0.58;100.00;92431.50;6189701;23;20051;-78
2023/03/02 05:21:28;;;;;;;65.03;26.65;;;;;;;0.61;100.00;92430.28;6215863;23;19996;-78
2023/03/02 05:23:53;;;;;;;59.92;25.58;;;;;;;0.66;100.00;92429.59;6189313;23;20013;-78
2023/03/02 05:26:19;;;;;;;64.97;26.65;;;;;;;0.67;100.00;92429.34;6147384;23;20012;-78
2023/03/02 05:28:45;;;;;;;56.55;25.92;;;;;;;0.73;100.00;92433.59;6185313;23;20012;-78
2023/03/02 05:31:28;;;;;;;65.22;26.77;;;;;;;0.75;100.00;92431.59;6187266;23;20004;-78
2023/03/02 05:33:53;;;;;;;60.55;27.27;;;;;;;0.72;100.00;92431.25;6189220;23;20100;-77
2023/03/02 05:36:19;;;;;;;60.10;27.05;;;;;;;0.75;100.00;92433.38;6216005;23;20091;-78
2023/03/02 05:38:44;;;;;;;64.38;27.63;;;;;;;0.75;100.00;92435.97;6216445;23;20444;-78
2023/03/02 05:41:10;;;;;;;56.28;26.48;;;;;;;0.75;100.00;92430.81;6214869;23;20048;-78
2023/03/02 05:43:36;;;;;;;63.33;26.80;;;;;;;0.76;100.00;92427.22;6163672;23;20051;-78
2023/03/02 05:46:02;;;;;;;57.67;27.35;;;;;;;0.79;100.00;92437.09;6211592;23;20027;-77
2023/03/02 05:48:29;;;;;;;54.15;25.67;;;;;;;0.82;100.00;92431.47;6211974;23;19996;-76
2023/03/02 05:50:55;;;;;;;64.75;26.73;;;;;;;0.82;100.00;92431.47;6210691;23;20020;-77
2023/03/02 05:53:21;;;;;;;59.08;27.85;;;;;;;0.87;100.00;92428.22;6202254;23;20095;-77
2023/03/02 05:55:47;;;;;;;60.08;26.88;;;;;;;0.86;100.00;92437.75;6211614;23;20023;-77
2023/03/02 05:58:16;;;;;;;53.33;25.50;;;;;;;0.87;100.00;92428.22;6214017;23;20027;-77
2023/03/02 06:00:42;;;;;;;59.58;25.83;;;;;;;0.91;100.00;92440.41;6214493;23;20016;-77
2023/03/02 06:03:08;;;;;;;55.67;26.08;;;;;;;0.92;100.00;92441.97;6213381;23;20495;-76
2023/03/02 06:05:33;;;;;;;63.88;26.35;;;;;;;1.04;100.00;92452.25;6215864;23;20005;-77
2023/03/02 06:08:00;;;;;;;62.80;26.65;;;;;;;1.03;100.00;92448.88;6216876;23;20357;-78
2023/03/02 06:10:25;;;;;;;59.78;27.38;;;;;;;1.04;100.00;92447.88;6217520;23;20437;-77
2023/03/02 06:12:51;;;;;;;111.93;45.58;;;;;;;1.00;100.00;92448.56;6212960;23;20092;-76
2023/03/02 06:15:17;;;;;;;78.78;30.95;;;;;;;0.97;100.00;92444.66;6191312;23;20515;-76
2023/03/02 06:17:43;;;;;;;57.92;26.42;;;;;;;0.99;100.00;92450.38;6214280;23;20066;-77
2023/03/02 06:20:09;;;;;;;58.85;26.95;;;;;;;1.01;100.00;92444.97;6167273;23;20035;-77
2023/03/02 06:22:44;;;;;;;59.78;26.52;;;;;;;1.00;100.00;92446.78;6217476;23;20012;-76
2023/03/02 06:25:18;;;;;;;60.15;26.98;;;;;;;1.02;100.00;92446.56;6189010;23;20023;-77
2023/03/02 06:27:45;;;;;;;57.88;26.88;;;;;;;1.04;100.00;92435.00;6212910;23;20028;-77
2023/03/02 06:30:14;;;;;;;69.28;29.13;;;;;;;1.12;100.00;92435.66;6214152;23;20310;-77
2023/03/02 06:32:40;;;;;;;62.67;26.33;;;;;;;1.15;100.00;92440.34;6216142;23;20008;-77
2023/03/02 06:35:07;;;;;;;61.60;26.25;;;;;;;1.18;100.00;92442.47;6213374;23;20012;-77
2023/03/02 06:37:33;;;;;;;61.17;26.77;;;;;;;1.22;100.00;92446.94;6213616;23;20020;-77
2023/03/02 06:39:59;;;;;;;59.42;27.02;;;;;;;1.26;100.00;92442.09;6213117;23;20485;-77
2023/03/02 06:42:26;;;;;;;59.53;27.17;;;;;;;1.28;100.00;92460.69;6217538;23;20009;-76
2023/03/02 06:44:53;;;;;;;58.10;27.17;;;;;;;1.30;100.00;92450.16;6212920;23;20015;-78
2023/03/02 06:47:21;;;;;;;58.50;27.55;;;;;;;1.33;100.00;92457.44;6213370;23;20487;-77
2023/03/02 06:49:47;;;;;;;54.17;25.85;;;;;;;1.37;100.00;92459.31;6214501;23;20506;-77
2023/03/02 06:52:13;;;;;;;54.13;26.13;;;;;;;1.40;100.00;92458.09;6213980;23;20043;-77
2023/03/02 06:54:39;;;;;;;53.00;26.38;;;;;;;1.38;100.00;92444.66;6163261;23;20067;-77
2023/03/02 06:57:06;;;;;;;58.95;26.63;;;;;;;1.42;100.00;92449.09;6214278;23;20019;-77
2023/03/02 06:59:32;;;;;;;55.58;26.60;;;;;;;1.44;100.00;92457.41;6215050;23;20012;-77
2023/03/02 07:01:57;;;;;;;53.30;25.70;;;;;;;1.51;100.00;92446.16;6170243;23;20517;-76
2023/03/02 07:04:27;;;;;;;64.70;26.95;;;;;;;1.54;100.00;92449.06;6217872;23;20083;-78
2023/03/02 07:06:53;;;;;;;56.28;26.23;;;;;;;1.53;100.00;92439.75;6216636;23;20020;-76
2023/03/02 07:09:18;;;;;;;59.25;26.92;;;;;;;1.59;100.00;92443.19;6214266;23;20459;-77
2023/03/02 07:11:57;;;;;;;60.92;27.65;;;;;;;1.61;100.00;92436.00;6216092;23;20095;-77
2023/03/02 07:14:22;;;;;;;58.65;25.95;;;;;;;1.65;100.00;92432.72;6214669;23;20459;-76
2023/03/02 07:16:48;;;;;;;60.22;25.60;;;;;;;1.70;100.00;92437.19;6214005;23;20019;-77
2023/03/02 07:19:14;;;;;;;56.22;26.40;;;;;;;1.75;100.00;92439.84;6187683;23;20007;-76
2023/03/02 07:21:39;;;;;;;61.25;27.13;;;;;;;1.78;100.00;92439.41;6214061;23;20012;-77
2023/03/02 07:24:05;;;;;;;53.65;24.88;;;;;;;1.86;100.00;92440.81;6214387;23;20012;-76
2023/03/02 07:26:31;;;;;;;54.05;25.42;;;;;;;1.91;100.00;92446.06;6214038;23;20417;-76
2023/03/02 07:28:58;;;;;;;61.28;27.27;;;;;;;1.95;100.00;92448.97;6214139;23;20035;-76
2023/03/02 07:31:25;;;;;;;47.92;18.55;;;;;;;1.99;100.00;92444.91;6212277;23;20096;-76
2023/03/02 07:33:50;;;;;;;52.17;24.75;;;;;;;2.01;100.00;92451.38;6214402;23;20005;-77
2023/03/02 07:36:16;;;;;;;60.10;27.23;;;;;;;1.85;100.00;92454.75;6214278;23;20144;-76
2023/03/02 07:38:42;;;;;;;49.50;23.27;;;;;;;1.80;100.00;92458.03;6187246;23;20012;-76
2023/03/02 07:41:08;;;;;;;63.95;25.67;;;;;;;1.77;100.00;92466.22;6214063;23;20015;-77
2023/03/02 07:43:35;;;;;;;62.22;26.65;;;;;;;1.82;100.00;92468.91;6187570;23;20033;-76
2023/03/02 07:46:03;;;;;;;67.45;28.05;;;;;;;1.90;100.00;92469.53;6163091;23;20040;-77
2023/03/02 07:48:29;;;;;;;59.38;26.60;;;;;;;2.06;100.00;92455.84;6188008;23;20000;-77
2023/03/02 07:50:59;;;;;;;61.42;27.85;;;;;;;2.18;100.00;92459.13;6187276;23;20005;-76
2023/03/02 07:53:27;;;;;;;66.20;29.17;;;;;;;2.17;100.00;92464.53;6213767;23;20024;-76
2023/03/02 07:55:52;;;;;;;61.30;27.85;;;;;;;2.20;100.00;92471.81;6214434;23;20448;-76
2023/03/02 07:58:31;;;;;;;69.30;28.77;;;;;;;2.35;100.00;92469.47;6215964;23;20038;-77
2023/03/02 08:00:57;;;;;;;53.55;25.00;;;;;;;2.55;100.00;92473.38;6189039;23;20013;-77
2023/03/02 08:03:25;;;;;;;26.65;14.35;;;;;;;2.96;100.00;92469.53;6188992;23;20325;-77
2023/03/02 08:05:51;;;;;;;58.28;25.45;;;;;;;3.23;100.00;92474.00;6215881;23;20032;-77
2023/03/02 08:08:22;;;;;;;57.50;25.13;;;;;;;3.26;100.00;92474.28;6188030;23;20019;-76
2023/03/02 08:10:47;;;;;;;40.88;17.38;;;;;;;3.63;100.00;92467.72;6215339;23;20450;-77
2023/03/02 08:13:18;;;;;;;57.05;24.60;;;;;;;4.04;100.00;92463.69;6215722;23;20005;-77
2023/03/02 08:15:44;;;;;;;47.88;23.17;;;;;;;4.26;100.00;92466.19;6216139;23;20375;-76
2023/03/02 08:18:10;;;;;;;50.47;23.02;;;;;;;4.77;100.00;92470.94;6216045;23;20092;-77
2023/03/02 08:20:36;;;;;;;36.78;15.73;;;;;;;4.83;100.00;92469.94;6187954;23;20345;-76
2023/03/02 08:23:02;;;;;;;31.77;14.38;;;;;;;4.96;100.00;92471.31;6187795;23;20018;-77
2023/03/02 08:25:27;;;;;;;34.55;16.13;;;;;;;4.91;100.00;92466.91;6188115;23;20027;-77
2023/03/02 08:27:53;;;;;;;30.92;15.10;;;;;;;4.89;100.00;92460.41;6163300;23;20013;-77
2023/03/02 08:30:19;;;;;;;44.72;19.02;;;;;;;4.87;100.00;92467.66;6214229;23;20001;-77
2023/03/02 08:32:44;;;;;;;25.17;14.25;;;;;;;4.77;100.00;92470.94;6213267;23;20083;-77
2023/03/02 08:35:11;;;;;;;33.75;16.67;;;;;;;4.86;100.00;92468.66;6137351;23;20135;-77
2023/03/02 08:37:37;;;;;;;47.35;21.63;;;;;;;4.66;100.00;92469.31;6213992;23;20005;-77
2023/03/02 08:40:03;;;;;;;39.50;17.90;;;;;;;4.40;100.00;92465.78;6214172;23;20026;-77
2023/03/02 08:42:28;;;;;;;40.22;17.88;;;;;;;4.16;100.00;92464.28;6187754;23;20021;-77
2023/03/02 08:44:54;;;;;;;54.70;24.58;;;;;;;4.13;100.00;92456.25;6214342;23;20063;-77
2023/03/02 08:47:19;;;;;;;44.83;22.65;;;;;;;4.17;100.00;92457.31;6188895;23;20226;-77
2023/03/02 08:49:45;;;;;;;50.60;22.58;;;;;;;4.41;100.00;92451.78;6187386;23;20017;-77
2023/03/02 08:52:13;;;;;;;43.60;21.98;;;;;;;4.58;100.00;92457.63;6190345;23;20290;-77
2023/03/02 08:54:39;;;;;;;49.92;24.00;;;;;;;4.77;100.00;92458.78;6213382;23;20024;-78
2023/03/02 08:57:09;;;;;;;47.92;22.27;;;;;;;4.86;100.00;92458.28;6213749;23;20017;-77
2023/03/02 08:59:35;;;;;;;38.78;17.92;;;;;;;5.01;100.00;92459.16;6212783;23;20044;-77
2023/03/02 09:02:00;;;;;;;52.67;26.05;;;;;;;4.73;100.00;92462.91;6212003;23;20024;-78
2023/03/02 09:04:26;;;;;;;48.33;22.50;;;;;;;4.86;100.00;92458.28;6163362;23;20036;-77
2023/03/02 09:06:52;;;;;;;36.88;17.38;;;;;;;4.91;100.00;92451.34;6214075;23;20047;-77
2023/03/02 09:09:17;;;;;;;50.90;23.15;;;;;;;4.94;100.00;92450.03;6211790;23;20009;-77
2023/03/02 09:11:43;;;;;;;53.17;25.00;;;;;;;5.20;100.00;92456.13;6212893;23;20344;-77
2023/03/02 09:14:09;;;;;;;40.83;19.85;;;;;;;5.26;100.00;92456.94;6218170;23;20052;-77
2023/03/02 09:16:35;;;;;;;52.72;23.80;;;;;;;5.03;100.00;92461.50;6218583;23;20000;-77
2023/03/02 09:19:01;;;;;;;41.17;17.40;;;;;;;5.03;100.00;92458.91;6221696;23;20017;-77
2023/03/02 09:21:27;;;;;;;47.72;21.08;;;;;;;4.93;100.00;92459.66;6192139;23;20013;-78
2023/03/02 09:23:56;;;;;;;46.15;21.20;;;;;;;4.75;100.00;92466.03;6211480;23;20028;-77
2023/03/02 09:26:22;;;;;;;53.83;26.58;;;;;;;4.41;100.00;92462.94;6211542;23;20016;-77
2023/03/02 09:28:48;;;;;;;54.08;26.25;;;;;;;4.30;100.00;92471.66;6161687;23;19996;-77
2023/03/02 09:31:14;;;;;;;44.80;19.95;;;;;;;4.21;100.00;92471.34;6211830;23;20009;-77
2023/03/02 09:33:39;;;;;;;48.30;19.08;;;;;;;4.19;100.00;92473.41;6213354;23;20264;-77
2023/03/02 09:36:11;;;;;;;49.28;22.67;;;;;;;4.15;100.00;92467.16;6212930;23;20046;-77
2023/03/02 09:38:36;;;;;;;58.05;27.23;;;;;;;4.41;100.00;92472.53;6214781;23;20012;-77
2023/03/02 09:41:08;;;;;;;39.85;17.35;;;;;;;4.57;100.00;92471.59;6213226;23;20038;-77
2023/03/02 09:43:46;;;;;;;49.23;22.17;;;;;;;4.60;100.00;92471.13;6213119;23;20067;-77
2023/03/02 09:46:22;;;;;;;57.00;27.10;;;;;;;4.47;100.00;92474.13;6214720;23;20242;-77
2023/03/02 09:49:21;;;;;;;56.67;25.55;;;;;;;4.53;100.00;92470.56;6213233;23;20066;-77
2023/03/02 09:52:28;;;;;;;43.75;23.13;;;;;;;4.44;100.00;92477.22;6211794;23;20013;-77
2023/03/02 09:54:56;;;;;;;49.67;23.08;;;;;;;4.69;100.00;92474.81;6187687;23;20011;-77
2023/03/02 09:57:27;;;;;;;57.17;26.40;;;;;;;4.64;100.00;92472.19;6214267;23;20017;-77
2023/03/02 09:59:58;;;;;;;38.63;17.98;;;;;;;4.73;100.00;92475.09;6187605;23;20016;-77
2023/03/02 10:02:55;;;;;;;54.55;26.23;;;;;;;5.00;100.00;92472.41;6188102;23;20008;-77
2023/03/02 10:05:28;;;;;;;54.13;25.02;;;;;;;5.53;100.00;92473.13;6212952;23;20395;-77
2023/03/02 10:07:54;;;;;;;51.58;26.23;;;;;;;5.83;100.00;92471.63;6214393;23;20318;-77
2023/03/02 10:10:35;;;;;;;52.25;23.35;;;;;;;6.24;100.00;92469.91;6214411;23;20047;-77
2023/03/02 10:13:41;;;;;;;49.33;24.25;;;;;;;6.58;100.00;92466.03;6187984;23;20025;-77
2023/03/02 10:16:33;;;;;;;46.97;22.88;;;;;;;7.51;94.12;92462.91;6188548;23;20009;-78
2023/03/02 10:19:07;;;;;;;50.53;23.30;;;;;;;8.58;90.31;92457.31;6214177;23;20016;-77
2023/03/02 10:21:38;;;;;;;30.05;15.10;;;;;;;8.81;83.68;92459.22;6214437;23;20023;-77
2023/03/02 10:24:25;;;;;;;45.58;21.83;;;;;;;8.78;81.89;92457.16;6187854;23;20040;-77
2023/03/02 10:27:16;;;;;;;40.92;20.90;;;;;;;9.36;78.35;92451.84;6214745;23;20013;-77
2023/03/02 10:29:47;;;;;;;43.83;20.45;;;;;;;10.01;77.22;92456.53;6213859;23;20012;-77
2023/03/02 10:32:16;;;;;;;42.92;18.33;;;;;;;10.34;74.01;92450.63;6189158;23;20393;-77
2023/03/02 10:34:41;;;;;;;29.58;14.82;;;;;;;10.10;73.69;92442.81;6188551;23;20001;-77
2023/03/02 10:37:12;;;;;;;47.83;24.25;;;;;;;9.13;73.42;92445.56;6214867;23;20023;-77
2023/03/02 10:39:38;;;;;;;50.88;25.33;;;;;;;8.69;76.39;92448.34;6188413;23;20068;-77
2023/03/02 10:42:06;;;;;;;39.92;18.42;;;;;;;8.25;80.21;92444.00;6162481;23;20017;-78
2023/03/02 10:44:44;;;;;;;49.53;24.90;;;;;;;7.45;84.84;92447.56;6214337;23;20013;-77
2023/03/02 10:47:23;;;;;;;50.88;26.00;;;;;;;7.01;88.41;92437.84;6216086;23;20087;-77
2023/03/02 10:49:50;;;;;;;50.28;25.38;;;;;;;6.91;88.80;92443.06;6216720;23;20012;-78
2023/03/02 10:52:21;;;;;;;49.63;21.58;;;;;;;7.05;89.85;92438.88;6221869;23;20016;-78
2023/03/02 10:54:47;;;;;;;45.67;23.33;;;;;;;7.05;85.21;92434.44;6196512;23;20362;-78
2023/03/02 10:57:30;;;;;;;45.47;23.90;;;;;;;7.59;83.88;92443.34;6217193;23;20067;-77
2023/03/02 11:00:16;;;;;;;52.13;26.02;;;;;;;8.12;81.67;92446.16;6216368;23;20035;-77
2023/03/02 11:03:21;;;;;;;30.40;17.55;;;;;;;8.10;79.80;92448.25;6213633;23;20009;-78
2023/03/02 11:05:48;;;;;;;29.55;16.40;;;;;;;7.46;79.79;92464.78;6201238;23;20017;-77
2023/03/02 11:08:23;;;;;;;35.22;18.70;;;;;;;7.39;83.70;92448.66;6162735;23;20086;-77
2023/03/02 11:10:56;;;;;;;45.75;21.10;;;;;;;7.22;83.90;92456.78;6188446;23;20011;-77
2023/03/02 11:13:33;;;;;;;49.20;20.80;;;;;;;6.68;87.67;92450.38;6214389;23;20062;-77
2023/03/02 11:16:20;;;;;;;35.42;18.73;;;;;;;6.83;86.05;92433.97;6214740;23;20012;-77
2023/03/02 11:19:07;;;;;;;48.97;22.52;;;;;;;7.32;84.06;92440.31;6214534;23;20044;-77
2023/03/02 11:21:54;;;;;;;29.80;15.57;;;;;;;8.03;77.56;92431.38;6188319;23;20023;-77
2023/03/02 11:24:32;;;;;;;40.80;21.42;;;;;;;8.71;79.21;92430.59;6193187;23;20008;-78
2023/03/02 11:27:06;;;;;;;27.23;12.18;;;;;;;9.29;73.56;92427.13;6193879;23;20040;-77
2023/03/02 11:29:44;;;;;;;31.38;15.55;;;;;;;8.86;74.97;92432.28;6188950;23;20527;-77